Airfield :
LOGIN :

Register | Disclaimer

   EN    FR    IT 

 










Legend :    VFR   Marginal VFR   IFR   Intensive IFR   Very Intensive IFR
Visi :
Ceiling :
>= 8 km
>= 3000ft
5 to 8 km
1000 to 3000 ft
1500m to 5 km
500 to 1000 ft
800 to 1500m
200 to 500 ft
< 800m
< 200 ft
Symbols :   Thunderstorms  Fog  Heavy snow  Heavy precipitations  Wind > 20 kt
SIGMETs :     Misc.  Thunderstorms  Icing  Turbulence  Mountain Waves  Volcanic Ashes







- Airport Elevation : 1822 ft


ETSL - Lechfeld AB

CURRENT METAR :
  • 171420Z 04010KT 9999 DRSN FEW010 BKN020 M05/M09 Q1028 BLACKWHT BLU TEMPO WHT

EXPIRED METARs :
  • 171320Z 04011KT 9999 DRSN FEW010 BKN015 BKN025 M06/M09 Q1028 BLACKWHT BLU TEMPO WHT
  • 171220Z 04009KT 9999 FEW010 SCT035 M07/M09 Q1028 BLACKBLU+BLU+ TEMPO WHT

TAF TAF ETSL
Valid from the 17 at 15:00 until the 18 at 00:00 UTC


171440Z 1715/1724 02008KT 9000 NSW SCT015 BKN035
TEMPO 1715/1718 03010G20KT 9999 NSW BKN015 BKN030 BY ETGL
No reported NOTAMs for that airfield.
1 SIGMET reported for the München FIR (EDMM) :
 
Severe turbulence
EDMM SIGMET 2 VALID 171300/171700 EDZM
EDMM MUNCHEN FIR SEV TURB FCST WI N5117 E01504 - N5048 E01450 - N4910 E01313 - N4809 E00935 - N4958 E01042 - N5117 E01504 FL180/245 MOV SE NC=



MET'MAP, your aeronautical weather chart ! - Copyright ORBIFLY December 2007 - Disclaimer

ORBIFLY MET'MAP TEAM :

Programming & Development : Alexandra Zaïnal
Concept & Development : Baudouin d'Aumeries
Co-Development & Prog : Marc-Olivier Méhu
Technical & hardware support : Manuel Goepfert

Contact : metmap@orbifly.com




SOURCES & CREDITS :

   NOAA